sensor_id;sensor_type;location;lat;lon;timestamp;pressure;altitude;pressure_sealevel;temperature;humidity
71768;BME280;59604;52.138;5.446;2023-03-01T00:00:40;103421.16;;;-1.02;80.03
71768;BME280;59604;52.138;5.446;2023-03-01T00:03:06;103414.31;;;-1.05;79.95
71768;BME280;59604;52.138;5.446;2023-03-01T00:05:33;103423.88;;;-1.07;80.20
71768;BME280;59604;52.138;5.446;2023-03-01T00:08:00;103422.16;;;-1.06;79.80
71768;BME280;59604;52.138;5.446;2023-03-01T00:10:26;103422.25;;;-1.11;80.21
71768;BME280;59604;52.138;5.446;2023-03-01T00:12:53;103419.75;;;-1.12;80.28
71768;BME280;59604;52.138;5.446;2023-03-01T00:15:19;103420.59;;;-1.12;80.61
71768;BME280;59604;52.138;5.446;2023-03-01T00:17:46;103416.31;;;-1.13;80.56
71768;BME280;59604;52.138;5.446;2023-03-01T00:20:12;103419.75;;;-1.12;80.56
71768;BME280;59604;52.138;5.446;2023-03-01T00:22:39;103425.81;;;-1.13;80.78
71768;BME280;59604;52.138;5.446;2023-03-01T00:25:06;103418.16;;;-1.16;81.15
71768;BME280;59604;52.138;5.446;2023-03-01T00:27:33;103416.50;;;-1.19;81.13
71768;BME280;59604;52.138;5.446;2023-03-01T00:29:59;103413.97;;;-1.20;81.34
71768;BME280;59604;52.138;5.446;2023-03-01T00:32:26;103408.88;;;-1.24;81.57
71768;BME280;59604;52.138;5.446;2023-03-01T00:34:52;103407.28;;;-1.28;81.49
71768;BME280;59604;52.138;5.446;2023-03-01T00:37:22;103399.63;;;-1.31;81.60
71768;BME280;59604;52.138;5.446;2023-03-01T00:39:49;103403.97;;;-1.31;81.47
71768;BME280;59604;52.138;5.446;2023-03-01T00:42:16;103404.84;;;-1.32;81.92
71768;BME280;59604;52.138;5.446;2023-03-01T00:44:42;103403.97;;;-1.33;82.33
71768;BME280;59604;52.138;5.446;2023-03-01T00:47:09;103407.53;;;-1.35;82.07
71768;BME280;59604;52.138;5.446;2023-03-01T00:49:35;103408.47;;;-1.38;82.36
71768;BME280;59604;52.138;5.446;2023-03-01T00:52:02;103404.22;;;-1.40;82.43
71768;BME280;59604;52.138;5.446;2023-03-01T00:54:29;103407.69;;;-1.41;82.84
71768;BME280;59604;52.138;5.446;2023-03-01T00:56:55;103407.75;;;-1.43;82.79
71768;BME280;59604;52.138;5.446;2023-03-01T00:59:22;103396.59;;;-1.45;82.90
71768;BME280;59604;52.138;5.446;2023-03-01T01:01:49;103397.59;;;-1.49;82.98
71768;BME280;59604;52.138;5.446;2023-03-01T01:04:15;103391.59;;;-1.50;83.75
71768;BME280;59604;52.138;5.446;2023-03-01T01:06:44;103391.59;;;-1.50;84.11
71768;BME280;59604;52.138;5.446;2023-03-01T01:09:16;103383.88;;;-1.51;83.85
71768;BME280;59604;52.138;5.446;2023-03-01T01:11:49;103377.94;;;-1.55;84.21
71768;BME280;59604;52.138;5.446;2023-03-01T01:14:17;103378.91;;;-1.57;84.38
71768;BME280;59604;52.138;5.446;2023-03-01T01:16:44;103373.72;;;-1.57;84.34
71768;BME280;59604;52.138;5.446;2023-03-01T01:19:11;103375.56;;;-1.61;84.46
71768;BME280;59604;52.138;5.446;2023-03-01T01:21:38;103367.00;;;-1.63;84.75
71768;BME280;59604;52.138;5.446;2023-03-01T01:24:05;103372.25;;;-1.66;84.78
71768;BME280;59604;52.138;5.446;2023-03-01T01:26:33;103371.38;;;-1.65;85.06
71768;BME280;59604;52.138;5.446;2023-03-01T01:29:02;103363.72;;;-1.68;84.92
71768;BME280;59604;52.138;5.446;2023-03-01T01:31:29;103363.75;;;-1.70;85.49
71768;BME280;59604;52.138;5.446;2023-03-01T01:33:57;103355.13;;;-1.68;85.70
71768;BME280;59604;52.138;5.446;2023-03-01T01:36:24;103350.81;;;-1.70;85.86
71768;BME280;59604;52.138;5.446;2023-03-01T01:38:51;103355.16;;;-1.70;85.93
71768;BME280;59604;52.138;5.446;2023-03-01T01:41:19;103362.88;;;-1.68;86.29
71768;BME280;59604;52.138;5.446;2023-03-01T01:46:41;103352.63;;;-1.72;86.64
71768;BME280;59604;52.138;5.446;2023-03-01T01:52:14;103351.06;;;-1.77;86.87
71768;BME280;59604;52.138;5.446;2023-03-01T01:54:47;103352.78;;;-1.78;86.88
71768;BME280;59604;52.138;5.446;2023-03-01T01:57:19;103353.69;;;-1.79;87.04
71768;BME280;59604;52.138;5.446;2023-03-01T01:59:53;103350.28;;;-1.79;86.61
71768;BME280;59604;52.138;5.446;2023-03-01T02:02:21;103342.59;;;-1.82;87.14
71768;BME280;59604;52.138;5.446;2023-03-01T02:04:54;103350.41;;;-1.84;87.11
71768;BME280;59604;52.138;5.446;2023-03-01T02:07:25;103349.53;;;-1.84;87.80
71768;BME280;59604;52.138;5.446;2023-03-01T02:09:52;103343.59;;;-1.86;88.01
71768;BME280;59604;52.138;5.446;2023-03-01T02:12:23;103336.81;;;-1.90;88.31
71768;BME280;59604;52.138;5.446;2023-03-01T02:14:50;103343.69;;;-1.89;88.32
71768;BME280;59604;52.138;5.446;2023-03-01T02:17:18;103336.00;;;-1.91;88.54
71768;BME280;59604;52.138;5.446;2023-03-01T02:22:50;103344.66;;;-1.93;88.21
71768;BME280;59604;52.138;5.446;2023-03-01T02:25:38;103340.41;;;-1.96;88.20
71768;BME280;59604;52.138;5.446;2023-03-01T02:30:48;103333.72;;;-2.02;88.07
71768;BME280;59604;52.138;5.446;2023-03-01T02:33:36;103328.63;;;-2.05;88.42
71768;BME280;59604;52.138;5.446;2023-03-01T02:36:08;103327.03;;;-2.09;88.53
71768;BME280;59604;52.138;5.446;2023-03-01T02:38:35;103319.38;;;-2.12;88.54
71768;BME280;59604;52.138;5.446;2023-03-01T02:41:03;103315.97;;;-2.14;89.03
71768;BME280;59604;52.138;5.446;2023-03-01T02:43:33;103315.97;;;-2.14;88.72
71768;BME280;59604;52.138;5.446;2023-03-01T02:46:13;103315.13;;;-2.14;89.00
71768;BME280;59604;52.138;5.446;2023-03-01T02:49:01;103316.94;;;-2.16;89.63
71768;BME280;59604;52.138;5.446;2023-03-01T02:56:36;103307.59;;;-2.21;89.51
71768;BME280;59604;52.138;5.446;2023-03-01T02:59:04;103310.19;;;-2.22;89.81
71768;BME280;59604;52.138;5.446;2023-03-01T03:01:31;103309.44;;;-2.26;89.56
71768;BME280;59604;52.138;5.446;2023-03-01T03:04:09;103307.75;;;-2.27;89.58
71768;BME280;59604;52.138;5.446;2023-03-01T03:06:37;103312.97;;;-2.28;89.81
71768;BME280;59604;52.138;5.446;2023-03-01T03:09:04;103304.34;;;-2.29;89.57
71768;BME280;59604;52.138;5.446;2023-03-01T03:11:31;103300.94;;;-2.29;89.39
71768;BME280;59604;52.138;5.446;2023-03-01T03:13:58;103306.09;;;-2.29;89.38
71768;BME280;59604;52.138;5.446;2023-03-01T03:16:25;103299.31;;;-2.33;89.36
71768;BME280;59604;52.138;5.446;2023-03-01T03:18:52;103301.97;;;-2.36;89.44
71768;BME280;59604;52.138;5.446;2023-03-01T03:21:19;103297.66;;;-2.36;89.75
71768;BME280;59604;52.138;5.446;2023-03-01T03:23:45;103289.97;;;-2.37;89.47
71768;BME280;59604;52.138;5.446;2023-03-01T03:26:12;103285.72;;;-2.38;90.05
71768;BME280;59604;52.138;5.446;2023-03-01T03:28:39;103284.88;;;-2.39;89.66
71768;BME280;59604;52.138;5.446;2023-03-01T03:31:07;103282.28;;;-2.39;89.96
71768;BME280;59604;52.138;5.446;2023-03-01T03:33:34;103290.06;;;-2.40;90.14
71768;BME280;59604;52.138;5.446;2023-03-01T03:36:01;103293.56;;;-2.43;89.77
71768;BME280;59604;52.138;5.446;2023-03-01T03:38:27;103291.03;;;-2.45;89.74
71768;BME280;59604;52.138;5.446;2023-03-01T03:41:04;103285.03;;;-2.45;89.92
71768;BME280;59604;52.138;5.446;2023-03-01T03:43:32;103288.63;;;-2.51;89.81
71768;BME280;59604;52.138;5.446;2023-03-01T03:45:59;103293.00;;;-2.53;90.03
71768;BME280;59604;52.138;5.446;2023-03-01T03:48:27;103285.31;;;-2.56;90.28
71768;BME280;59604;52.138;5.446;2023-03-01T03:50:55;103280.22;;;-2.57;90.49
71768;BME280;59604;52.138;5.446;2023-03-01T03:53:23;103281.16;;;-2.60;90.42
71768;BME280;59604;52.138;5.446;2023-03-01T03:55:50;103274.31;;;-2.62;90.43
71768;BME280;59604;52.138;5.446;2023-03-01T03:58:19;103272.59;;;-2.62;90.22
71768;BME280;59604;52.138;5.446;2023-03-01T04:00:47;103276.97;;;-2.64;90.49
71768;BME280;59604;52.138;5.446;2023-03-01T04:03:15;103278.72;;;-2.66;90.41
71768;BME280;59604;52.138;5.446;2023-03-01T04:05:42;103284.72;;;-2.65;90.46
71768;BME280;59604;52.138;5.446;2023-03-01T04:08:09;103282.19;;;-2.67;90.11
71768;BME280;59604;52.138;5.446;2023-03-01T04:10:41;103277.94;;;-2.68;90.16
71768;BME280;59604;52.138;5.446;2023-03-01T04:13:14;103287.44;;;-2.70;89.97
71768;BME280;59604;52.138;5.446;2023-03-01T04:15:42;103281.50;;;-2.72;90.06
71768;BME280;59604;52.138;5.446;2023-03-01T04:18:12;103281.56;;;-2.75;90.01
71768;BME280;59604;52.138;5.446;2023-03-01T04:20:40;103278.22;;;-2.79;90.27
71768;BME280;59604;52.138;5.446;2023-03-01T04:23:10;103283.41;;;-2.80;90.22
71768;BME280;59604;52.138;5.446;2023-03-01T04:25:51;103288.53;;;-2.79;90.49
71768;BME280;59604;52.138;5.446;2023-03-01T04:30:52;103282.63;;;-2.82;90.35
71768;BME280;59604;52.138;5.446;2023-03-01T04:33:19;103292.94;;;-2.84;89.97
71768;BME280;59604;52.138;5.446;2023-03-01T04:35:46;103284.38;;;-2.84;89.93
71768;BME280;59604;52.138;5.446;2023-03-01T04:38:17;103291.31;;;-2.86;89.98
71768;BME280;59604;52.138;5.446;2023-03-01T04:40:44;103279.34;;;-2.89;89.91
71768;BME280;59604;52.138;5.446;2023-03-01T04:43:12;103279.34;;;-2.89;90.11
71768;BME280;59604;52.138;5.446;2023-03-01T04:45:41;103287.13;;;-2.90;90.27
71768;BME280;59604;52.138;5.446;2023-03-01T04:48:08;103274.25;;;-2.92;89.87
71768;BME280;59604;52.138;5.446;2023-03-01T04:50:35;103273.56;;;-2.97;90.35
71768;BME280;59604;52.138;5.446;2023-03-01T04:53:01;103277.94;;;-3.01;90.16
71768;BME280;59604;52.138;5.446;2023-03-01T04:55:30;103271.09;;;-3.02;90.20
71768;BME280;59604;52.138;5.446;2023-03-01T04:57:57;103265.94;;;-3.02;90.47
71768;BME280;59604;52.138;5.446;2023-03-01T05:00:24;103260.00;;;-3.05;90.46
71768;BME280;59604;52.138;5.446;2023-03-01T05:03:00;103261.72;;;-3.06;90.96
71768;BME280;59604;52.138;5.446;2023-03-01T05:05:30;103254.97;;;-3.10;90.64
71768;BME280;59604;52.138;5.446;2023-03-01T05:08:00;103244.66;;;-3.10;90.95
71768;BME280;59604;52.138;5.446;2023-03-01T05:10:29;103237.75;;;-3.09;91.02
71768;BME280;59604;52.138;5.446;2023-03-01T05:12:56;103235.16;;;-3.08;91.09
71768;BME280;59604;52.138;5.446;2023-03-01T05:15:28;103245.41;;;-3.06;91.29
71768;BME280;59604;52.138;5.446;2023-03-01T05:17:57;103240.25;;;-3.06;91.41
71768;BME280;59604;52.138;5.446;2023-03-01T05:20:29;103230.91;;;-3.09;91.30
71768;BME280;59604;52.138;5.446;2023-03-01T05:22:57;103233.50;;;-3.10;91.52
71768;BME280;59604;52.138;5.446;2023-03-01T05:25:25;103234.38;;;-3.11;91.09
71768;BME280;59604;52.138;5.446;2023-03-01T05:27:52;103214.75;;;-3.17;91.45
71768;BME280;59604;52.138;5.446;2023-03-01T05:30:19;103212.28;;;-3.20;91.62
71768;BME280;59604;52.138;5.446;2023-03-01T05:32:48;103213.97;;;-3.19;91.40
71768;BME280;59604;52.138;5.446;2023-03-01T05:35:16;103215.66;;;-3.18;91.47
71768;BME280;59604;52.138;5.446;2023-03-01T05:37:45;103218.22;;;-3.17;91.95
71768;BME280;59604;52.138;5.446;2023-03-01T05:40:15;103214.75;;;-3.17;91.82
71768;BME280;59604;52.138;5.446;2023-03-01T05:42:43;103204.50;;;-3.19;91.72
71768;BME280;59604;52.138;5.446;2023-03-01T05:45:11;103207.06;;;-3.19;91.76
71768;BME280;59604;52.138;5.446;2023-03-01T05:47:40;103206.19;;;-3.18;92.02
71768;BME280;59604;52.138;5.446;2023-03-01T05:50:18;103207.06;;;-3.19;91.97
71768;BME280;59604;52.138;5.446;2023-03-01T05:52:50;103200.25;;;-3.20;91.71
71768;BME280;59604;52.138;5.446;2023-03-01T05:55:19;103202.00;;;-3.22;91.78
71768;BME280;59604;52.138;5.446;2023-03-01T05:57:46;103200.25;;;-3.21;91.72
71768;BME280;59604;52.138;5.446;2023-03-01T06:00:16;103197.75;;;-3.24;91.99
71768;BME280;59604;52.138;5.446;2023-03-01T06:02:43;103186.81;;;-3.32;92.07
71768;BME280;59604;52.138;5.446;2023-03-01T06:05:12;103198.84;;;-3.31;92.31
71768;BME280;59604;52.138;5.446;2023-03-01T06:07:39;103197.97;;;-3.32;91.94
71768;BME280;59604;52.138;5.446;2023-03-01T06:10:07;103196.25;;;-3.31;92.35
71768;BME280;59604;52.138;5.446;2023-03-01T06:12:37;103188.53;;;-3.33;92.45
71768;BME280;59604;52.138;5.446;2023-03-01T06:15:05;103189.44;;;-3.34;92.33
71768;BME280;59604;52.138;5.446;2023-03-01T06:17:33;103194.63;;;-3.35;92.40
71768;BME280;59604;52.138;5.446;2023-03-01T06:20:11;103198.09;;;-3.36;92.21
71768;BME280;59604;52.138;5.446;2023-03-01T06:22:38;103203.38;;;-3.43;92.17
71768;BME280;59604;52.138;5.446;2023-03-01T06:25:06;103201.69;;;-3.44;92.06
71768;BME280;59604;52.138;5.446;2023-03-01T06:27:33;103200.03;;;-3.45;92.12
71768;BME280;59604;52.138;5.446;2023-03-01T06:29:59;103205.16;;;-3.45;92.12
71768;BME280;59604;52.138;5.446;2023-03-01T06:32:26;103197.47;;;-3.46;92.00
71768;BME280;59604;52.138;5.446;2023-03-01T06:34:53;103209.47;;;-3.45;91.77
71768;BME280;59604;52.138;5.446;2023-03-01T06:37:19;103205.97;;;-3.43;91.95
71768;BME280;59604;52.138;5.446;2023-03-01T06:39:46;103206.06;;;-3.46;92.04
71768;BME280;59604;52.138;5.446;2023-03-01T06:42:12;103210.28;;;-3.43;92.18
71768;BME280;59604;52.138;5.446;2023-03-01T06:44:39;103205.03;;;-3.40;91.82
71768;BME280;59604;52.138;5.446;2023-03-01T06:47:06;103196.41;;;-3.37;92.13
71768;BME280;59604;52.138;5.446;2023-03-01T06:49:32;103204.91;;;-3.34;91.96
71768;BME280;59604;52.138;5.446;2023-03-01T06:51:59;103199.69;;;-3.31;91.82
71768;BME280;59604;52.138;5.446;2023-03-01T06:54:25;103204.78;;;-3.29;91.87
71768;BME280;59604;52.138;5.446;2023-03-01T06:56:52;103206.38;;;-3.25;92.01
71768;BME280;59604;52.138;5.446;2023-03-01T06:59:19;103203.69;;;-3.21;92.01
71768;BME280;59604;52.138;5.446;2023-03-01T07:01:45;103202.81;;;-3.20;92.13
71768;BME280;59604;52.138;5.446;2023-03-01T07:04:13;103202.81;;;-3.20;92.26
71768;BME280;59604;52.138;5.446;2023-03-01T07:06:40;103202.81;;;-3.20;92.47
71768;BME280;59604;52.138;5.446;2023-03-01T07:09:06;103201.97;;;-3.20;92.52
71768;BME280;59604;52.138;5.446;2023-03-01T07:11:33;103197.53;;;-3.15;92.70
71768;BME280;59604;52.138;5.446;2023-03-01T07:14:00;103199.09;;;-3.09;92.79
71768;BME280;59604;52.138;5.446;2023-03-01T07:16:26;103203.31;;;-3.07;92.66
71768;BME280;59604;52.138;5.446;2023-03-01T07:18:53;103209.22;;;-3.02;93.27
71768;BME280;59604;52.138;5.446;2023-03-01T07:21:20;103205.63;;;-2.96;93.10
71768;BME280;59604;52.138;5.446;2023-03-01T07:23:47;103208.91;;;-2.91;93.38
71768;BME280;59604;52.138;5.446;2023-03-01T07:26:15;103211.38;;;-2.86;93.34
71768;BME280;59604;52.138;5.446;2023-03-01T07:28:41;103203.50;;;-2.82;93.41
71768;BME280;59604;52.138;5.446;2023-03-01T07:31:08;103212.78;;;-2.75;93.49
71768;BME280;59604;52.138;5.446;2023-03-01T07:33:34;103212.59;;;-2.69;93.62
71768;BME280;59604;52.138;5.446;2023-03-01T07:36:02;103220.16;;;-2.62;93.44
71768;BME280;59604;52.138;5.446;2023-03-01T07:38:30;103214.84;;;-2.58;93.18
71768;BME280;59604;52.138;5.446;2023-03-01T07:41:01;103216.38;;;-2.51;93.56
71768;BME280;59604;52.138;5.446;2023-03-01T07:43:29;103223.94;;;-2.45;93.28
71768;BME280;59604;52.138;5.446;2023-03-01T07:46:00;103226.38;;;-2.40;93.42
71768;BME280;59604;52.138;5.446;2023-03-01T07:48:27;103227.91;;;-2.33;93.34
71768;BME280;59604;52.138;5.446;2023-03-01T07:50:54;103222.66;;;-2.30;93.32
71768;BME280;59604;52.138;5.446;2023-03-01T07:53:21;103221.66;;;-2.26;93.74
71768;BME280;59604;52.138;5.446;2023-03-01T07:55:47;103224.00;;;-2.18;93.47
71768;BME280;59604;52.138;5.446;2023-03-01T07:58:14;103227.25;;;-2.11;93.63
71768;BME280;59604;52.138;5.446;2023-03-01T08:00:40;103231.34;;;-2.04;93.67
71768;BME280;59604;52.138;5.446;2023-03-01T08:03:07;103227.75;;;-1.99;93.01
71768;BME280;59604;52.138;5.446;2023-03-01T08:05:34;103226.78;;;-1.96;93.41
71768;BME280;59604;52.138;5.446;2023-03-01T08:08:00;103236.03;;;-1.89;93.81
71768;BME280;59604;52.138;5.446;2023-03-01T08:10:27;103228.88;;;-1.81;93.72
71768;BME280;59604;52.138;5.446;2023-03-01T08:12:53;103220.13;;;-1.75;94.12
71768;BME280;59604;52.138;5.446;2023-03-01T08:15:20;103223.25;;;-1.65;93.56
71768;BME280;59604;52.138;5.446;2023-03-01T08:17:49;103216.03;;;-1.56;93.73
71768;BME280;59604;52.138;5.446;2023-03-01T08:20:16;103221.78;;;-1.48;93.75
71768;BME280;59604;52.138;5.446;2023-03-01T08:22:45;103223.13;;;-1.36;93.75
71768;BME280;59604;52.138;5.446;2023-03-01T08:25:11;103212.44;;;-1.25;93.30
71768;BME280;59604;52.138;5.446;2023-03-01T08:27:38;103222.44;;;-1.16;93.21
71768;BME280;59604;52.138;5.446;2023-03-01T08:30:05;103216.19;;;-1.09;92.80
71768;BME280;59604;52.138;5.446;2023-03-01T08:32:37;103210.66;;;-1.00;92.60
71768;BME280;59604;52.138;5.446;2023-03-01T08:35:04;103202.66;;;-0.92;92.27
71768;BME280;59604;52.138;5.446;2023-03-01T08:37:31;103209.28;;;-0.85;92.51
71768;BME280;59604;52.138;5.446;2023-03-01T08:40:00;103203.72;;;-0.74;92.61
71768;BME280;59604;52.138;5.446;2023-03-01T08:42:27;103204.31;;;-0.66;92.40
71768;BME280;59604;52.138;5.446;2023-03-01T08:44:53;103200.31;;;-0.51;92.17
71768;BME280;59604;52.138;5.446;2023-03-01T08:47:20;103199.09;;;-0.42;91.48
71768;BME280;59604;52.138;5.446;2023-03-01T08:49:46;103199.41;;;-0.28;90.20
71768;BME280;59604;52.138;5.446;2023-03-01T08:52:13;103185.88;;;-0.13;89.65
71768;BME280;59604;52.138;5.446;2023-03-01T08:54:40;103182.94;;;-0.04;89.30
71768;BME280;59604;52.138;5.446;2023-03-01T08:57:06;103188.53;;;0.08;88.76
71768;BME280;59604;52.138;5.446;2023-03-01T08:59:33;103185.78;;;0.11;88.81
71768;BME280;59604;52.138;5.446;2023-03-01T09:02:05;103186.28;;;0.20;88.99
71768;BME280;59604;52.138;5.446;2023-03-01T09:04:32;103188.56;;;0.28;88.77
71768;BME280;59604;52.138;5.446;2023-03-01T09:06:59;103184.09;;;0.32;88.45
71768;BME280;59604;52.138;5.446;2023-03-01T09:09:26;103179.25;;;0.44;88.23
71768;BME280;59604;52.138;5.446;2023-03-01T09:11:53;103169.97;;;0.59;86.72
71768;BME280;59604;52.138;5.446;2023-03-01T09:14:19;103167.63;;;0.73;86.12
71768;BME280;59604;52.138;5.446;2023-03-01T09:16:46;103163.66;;;0.85;85.71
71768;BME280;59604;52.138;5.446;2023-03-01T09:19:13;103166.09;;;0.88;85.84
71768;BME280;59604;52.138;5.446;2023-03-01T09:21:40;103166.69;;;0.95;85.80
71768;BME280;59604;52.138;5.446;2023-03-01T09:24:13;103162.19;;;0.99;85.42
71768;BME280;59604;52.138;5.446;2023-03-01T09:26:41;103148.69;;;1.11;85.42
71768;BME280;59604;52.138;5.446;2023-03-01T09:29:07;103148.88;;;1.25;84.28
71768;BME280;59604;52.138;5.446;2023-03-01T09:31:36;103141.31;;;1.39;83.63
71768;BME280;59604;52.138;5.446;2023-03-01T09:34:02;103147.72;;;1.51;83.39
71768;BME280;59604;52.138;5.446;2023-03-01T09:36:29;103141.56;;;1.71;80.48
71768;BME280;59604;52.138;5.446;2023-03-01T09:39:00;103132.34;;;1.83;80.63
71768;BME280;59604;52.138;5.446;2023-03-01T09:46:45;103133.44;;;2.13;78.96
71768;BME280;59604;52.138;5.446;2023-03-01T09:49:15;103138.88;;;2.26;77.44
71768;BME280;59604;52.138;5.446;2023-03-01T09:51:54;103126.06;;;2.39;75.59
71768;BME280;59604;52.138;5.446;2023-03-01T09:54:22;103129.75;;;2.52;73.57
71768;BME280;59604;52.138;5.446;2023-03-01T09:57:39;103128.28;;;2.64;71.38
71768;BME280;59604;52.138;5.446;2023-03-01T10:02:26;103128.78;;;2.88;71.41
71768;BME280;59604;52.138;5.446;2023-03-01T10:05:00;103138.78;;;2.96;70.07
71768;BME280;59604;52.138;5.446;2023-03-01T10:10:38;103129.56;;;3.06;69.07
71768;BME280;59604;52.138;5.446;2023-03-01T10:13:31;103129.47;;;3.07;68.16
71768;BME280;59604;52.138;5.446;2023-03-01T10:16:06;103127.13;;;3.19;69.26
71768;BME280;59604;52.138;5.446;2023-03-01T10:18:37;103126.69;;;3.26;68.45
71768;BME280;59604;52.138;5.446;2023-03-01T10:21:19;103128.63;;;3.38;67.72
71768;BME280;59604;52.138;5.446;2023-03-01T10:23:50;103127.28;;;3.47;66.82
71768;BME280;59604;52.138;5.446;2023-03-01T10:29:31;103123.44;;;3.54;65.75
71768;BME280;59604;52.138;5.446;2023-03-01T10:31:52;103115.34;;;3.59;66.87
71768;BME280;59604;52.138;5.446;2023-03-01T10:34:31;103108.88;;;3.66;66.23
71768;BME280;59604;52.138;5.446;2023-03-01T10:37:25;103121.28;;;3.77;65.36
71768;BME280;59604;52.138;5.446;2023-03-01T10:39:58;103103.44;;;3.85;62.81
71768;BME280;59604;52.138;5.446;2023-03-01T10:42:30;103104.09;;;3.88;61.04
71768;BME280;59604;52.138;5.446;2023-03-01T10:48:11;103088.16;;;4.09;62.79
71768;BME280;59604;52.138;5.446;2023-03-01T10:50:44;103078.38;;;4.27;61.95
71768;BME280;59604;52.138;5.446;2023-03-01T10:53:24;103082.41;;;4.32;60.47
71768;BME280;59604;52.138;5.446;2023-03-01T10:58:27;103071.34;;;4.43;58.94
71768;BME280;59604;52.138;5.446;2023-03-01T11:01:06;103071.06;;;4.48;59.51
71768;BME280;59604;52.138;5.446;2023-03-01T11:03:35;103072.19;;;4.58;59.86
71768;BME280;59604;52.138;5.446;2023-03-01T11:06:20;103055.22;;;4.65;59.71
71768;BME280;59604;52.138;5.446;2023-03-01T11:08:49;103064.53;;;4.69;58.79
71768;BME280;59604;52.138;5.446;2023-03-01T11:11:34;103059.84;;;4.74;58.54
71768;BME280;59604;52.138;5.446;2023-03-01T11:14:13;103064.22;;;4.88;58.02
71768;BME280;59604;52.138;5.446;2023-03-01T11:17:14;103054.91;;;4.84;54.58
71768;BME280;59604;52.138;5.446;2023-03-01T11:19:41;103057.53;;;4.84;56.74
71768;BME280;59604;52.138;5.446;2023-03-01T11:22:20;103048.75;;;4.85;55.38
71768;BME280;59604;52.138;5.446;2023-03-01T11:24:53;103034.19;;;4.95;56.53
71768;BME280;59604;52.138;5.446;2023-03-01T11:27:39;103044.91;;;5.05;55.42
71768;BME280;59604;52.138;5.446;2023-03-01T11:35:59;103034.06;;;4.97;53.38
71768;BME280;59604;52.138;5.446;2023-03-01T11:38:29;103031.69;;;5.21;52.60
71768;BME280;59604;52.138;5.446;2023-03-01T11:41:06;103034.75;;;5.27;53.14
71768;BME280;59604;52.138;5.446;2023-03-01T11:43:59;103029.75;;;5.37;53.26
71768;BME280;59604;52.138;5.446;2023-03-01T11:46:49;103036.38;;;5.43;52.62
71768;BME280;59604;52.138;5.446;2023-03-01T11:57:32;103024.28;;;5.54;49.49
71768;BME280;59604;52.138;5.446;2023-03-01T12:00:41;103018.31;;;5.52;51.03
71768;BME280;59604;52.138;5.446;2023-03-01T12:11:43;103013.88;;;5.93;51.76
71768;BME280;59604;52.138;5.446;2023-03-01T12:25:08;103015.91;;;6.27;51.62
71768;BME280;59604;52.138;5.446;2023-03-01T12:27:47;103008.75;;;6.29;49.94
71768;BME280;59604;52.138;5.446;2023-03-01T12:38:33;102999.25;;;6.41;47.87
71768;BME280;59604;52.138;5.446;2023-03-01T12:41:34;102987.81;;;6.42;48.92
71768;BME280;59604;52.138;5.446;2023-03-01T12:44:24;102989.41;;;6.32;47.66
71768;BME280;59604;52.138;5.446;2023-03-01T12:54:56;102967.78;;;6.54;49.64
71768;BME280;59604;52.138;5.446;2023-03-01T12:57:31;102967.03;;;6.65;49.09
71768;BME280;59604;52.138;5.446;2023-03-01T13:00:19;102960.56;;;6.58;48.90
71768;BME280;59604;52.138;5.446;2023-03-01T13:11:57;102930.44;;;6.76;47.90
71768;BME280;59604;52.138;5.446;2023-03-01T13:16:52;102933.09;;;6.87;47.22
71768;BME280;59604;52.138;5.446;2023-03-01T13:19:26;102921.13;;;6.96;47.43
71768;BME280;59604;52.138;5.446;2023-03-01T13:21:55;102926.59;;;6.93;47.45
71768;BME280;59604;52.138;5.446;2023-03-01T13:27:21;102924.94;;;7.03;47.86
71768;BME280;59604;52.138;5.446;2023-03-01T13:29:49;102919.03;;;6.88;46.88
71768;BME280;59604;52.138;5.446;2023-03-01T13:32:24;102904.97;;;6.78;46.42
71768;BME280;59604;52.138;5.446;2023-03-01T13:35:22;102907.25;;;6.83;46.86
71768;BME280;59604;52.138;5.446;2023-03-01T13:37:49;102897.78;;;6.93;46.91
71768;BME280;59604;52.138;5.446;2023-03-01T13:42:46;102889.00;;;6.81;46.05
71768;BME280;59604;52.138;5.446;2023-03-01T13:45:34;102889.69;;;6.96;47.22
71768;BME280;59604;52.138;5.446;2023-03-01T13:50:43;102883.53;;;7.08;46.36
71768;BME280;59604;52.138;5.446;2023-03-01T13:53:16;102878.28;;;7.08;45.60
71768;BME280;59604;52.138;5.446;2023-03-01T13:55:46;102878.78;;;7.13;45.65
71768;BME280;59604;52.138;5.446;2023-03-01T13:58:15;102874.84;;;7.08;44.76
71768;BME280;59604;52.138;5.446;2023-03-01T14:00:42;102880.31;;;7.05;45.19
71768;BME280;59604;52.138;5.446;2023-03-01T14:03:18;102871.94;;;6.99;45.67
71768;BME280;59604;52.138;5.446;2023-03-01T14:08:39;102857.34;;;7.08;45.53
71768;BME280;59604;52.138;5.446;2023-03-01T14:11:33;102851.50;;;7.16;45.40
71768;BME280;59604;52.138;5.446;2023-03-01T14:16:56;102847.84;;;7.30;45.27
71768;BME280;59604;52.138;5.446;2023-03-01T14:19:28;102840.59;;;7.33;45.05
71768;BME280;59604;52.138;5.446;2023-03-01T14:24:48;102830.53;;;7.16;44.70
71768;BME280;59604;52.138;5.446;2023-03-01T14:27:16;102834.34;;;7.12;45.66
71768;BME280;59604;52.138;5.446;2023-03-01T14:29:44;102822.06;;;7.12;44.01
71768;BME280;59604;52.138;5.446;2023-03-01T14:32:30;102818.13;;;7.18;44.44
71768;BME280;59604;52.138;5.446;2023-03-01T14:34:59;102827.81;;;7.29;45.07
71768;BME280;59604;52.138;5.446;2023-03-01T14:37:31;102821.75;;;7.28;43.40
71768;BME280;59604;52.138;5.446;2023-03-01T14:40:00;102813.16;;;7.26;44.48
71768;BME280;59604;52.138;5.446;2023-03-01T14:42:36;102813.28;;;7.24;44.59
71768;BME280;59604;52.138;5.446;2023-03-01T14:45:03;102804.09;;;7.19;44.82
71768;BME280;59604;52.138;5.446;2023-03-01T14:47:34;102810.78;;;7.23;46.66
71768;BME280;59604;52.138;5.446;2023-03-01T14:52:39;102808.75;;;7.26;45.83
71768;BME280;59604;52.138;5.446;2023-03-01T14:55:18;102801.84;;;7.25;45.05
71768;BME280;59604;52.138;5.446;2023-03-01T14:57:47;102809.72;;;7.25;45.44
71768;BME280;59604;52.138;5.446;2023-03-01T15:00:27;102809.72;;;7.25;46.35
71768;BME280;59604;52.138;5.446;2023-03-01T15:02:56;102811.38;;;7.26;46.76
71768;BME280;59604;52.138;5.446;2023-03-01T15:05:31;102801.13;;;7.23;46.47
71768;BME280;59604;52.138;5.446;2023-03-01T15:07:59;102805.41;;;7.13;45.88